Time,TemperatureF,DewpointF,PressureIn,WindDirection,WindDirectionDegrees,WindSpeedMPH,WindSpeedGustMPH,Humidity,HourlyPrecipIn,Conditions,Clouds,dailyrainin,SoftwareType,DateUTC
2013-05-14 00:03:00,50.0,29.0,-100.00,NW,323,8.0,-999.0,45,0.00,,,0.00,,2013-05-14 04:03:00,
2013-05-14 00:13:00,50.0,29.0,-100.00,NW,323,8.0,-999.0,45,0.00,,,0.00,,2013-05-14 04:13:00,
2013-05-14 00:53:00,48.0,31.0,-100.00,North,359,7.0,-999.0,52,0.00,,,0.00,,2013-05-14 04:53:00,
2013-05-14 01:02:00,48.0,31.0,-100.00,North,359,7.0,-999.0,52,0.00,,,0.00,,2013-05-14 05:02:00,
2013-05-14 01:12:00,48.0,31.0,-100.00,North,359,7.0,-999.0,52,0.00,,,0.00,,2013-05-14 05:12:00,
2013-05-14 01:52:00,47.0,28.0,-100.00,North,4,9.0,-999.0,48,0.00,,,0.00,,2013-05-14 05:52:00,
2013-05-14 02:01:00,47.0,28.0,-100.00,North,4,9.0,-999.0,48,0.00,,,0.00,,2013-05-14 06:01:00,
2013-05-14 02:13:00,47.0,28.0,-100.00,North,4,9.0,-999.0,48,0.00,,,0.00,,2013-05-14 06:13:00,
2013-05-14 02:52:00,44.0,31.0,-100.00,NNW,343,5.0,-999.0,61,0.00,,,0.00,,2013-05-14 06:52:00,
2013-05-14 03:02:00,44.0,31.0,-100.00,NNW,343,5.0,-999.0,61,0.00,,,0.00,,2013-05-14 07:02:00,
2013-05-14 03:11:00,44.0,31.0,-100.00,NNW,343,5.0,-999.0,61,0.00,,,0.00,,2013-05-14 07:11:00,
2013-05-14 03:52:00,43.0,31.0,-100.00,NNW,343,6.0,-999.0,63,0.00,,,0.00,,2013-05-14 07:52:00,
2013-05-14 04:02:00,43.0,31.0,-100.00,NNW,343,6.0,-999.0,63,0.00,,,0.00,,2013-05-14 08:02:00,
2013-05-14 04:11:00,43.0,31.0,-100.00,NNW,343,6.0,-999.0,63,0.00,,,0.00,,2013-05-14 08:11:00,
2013-05-14 04:52:00,44.0,33.0,-100.00,NNW,339,6.0,-999.0,64,0.00,,,0.00,,2013-05-14 08:52:00,
2013-05-14 05:02:00,44.0,33.0,-100.00,NNW,339,6.0,-999.0,64,0.00,,,0.00,,2013-05-14 09:02:00,
2013-05-14 05:11:00,44.0,33.0,-100.00,NNW,339,6.0,-999.0,64,0.00,,,0.00,,2013-05-14 09:11:00,
2013-05-14 05:54:00,43.0,32.0,-100.00,NNW,338,6.0,-999.0,66,0.00,,,0.00,,2013-05-14 09:54:00,
2013-05-14 06:05:00,43.0,32.0,-100.00,NNW,338,6.0,-999.0,66,0.00,,,0.00,,2013-05-14 10:05:00,
2013-05-14 06:14:00,43.0,32.0,-100.00,NNW,338,6.0,-999.0,66,0.00,,,0.00,,2013-05-14 10:14:00,
2013-05-14 06:53:00,42.0,33.0,-100.00,NNW,329,7.0,-999.0,69,0.00,,,0.00,,2013-05-14 10:53:00,
2013-05-14 07:03:00,42.0,33.0,-100.00,NNW,329,7.0,-999.0,69,0.00,,,0.00,,2013-05-14 11:03:00,
2013-05-14 07:11:00,42.0,33.0,-100.00,NNW,329,7.0,-999.0,69,0.00,,,0.00,,2013-05-14 11:11:00,
2013-05-14 07:53:00,45.0,32.0,-100.00,NNW,342,10.0,-999.0,60,0.00,,,0.00,,2013-05-14 11:53:00,
2013-05-14 08:03:00,45.0,32.0,-100.00,NNW,342,10.0,-999.0,60,0.00,,,0.00,,2013-05-14 12:03:00,
2013-05-14 08:12:00,45.0,32.0,-100.00,NNW,342,10.0,-999.0,60,0.00,,,0.00,,2013-05-14 12:12:00,
2013-05-14 08:52:00,48.0,30.0,-100.00,NNW,333,11.0,-999.0,49,0.00,,,0.00,,2013-05-14 12:52:00,
2013-05-14 09:01:00,48.0,30.0,-100.00,NNW,333,11.0,-999.0,49,0.00,,,0.00,,2013-05-14 13:01:00,
2013-05-14 09:11:00,48.0,30.0,-100.00,NNW,333,11.0,-999.0,49,0.00,,,0.00,,2013-05-14 13:11:00,
2013-05-14 09:52:00,50.0,27.0,-100.00,NNW,328,7.0,-999.0,41,0.00,,,0.00,,2013-05-14 13:52:00,
2013-05-14 10:01:00,50.0,27.0,-100.00,NNW,328,7.0,-999.0,41,0.00,,,0.00,,2013-05-14 14:01:00,
2013-05-14 10:11:00,50.0,27.0,-100.00,NNW,328,7.0,-999.0,41,0.00,,,0.00,,2013-05-14 14:11:00,
2013-05-14 10:53:00,51.0,22.0,-100.00,NW,310,10.0,-999.0,32,0.00,,,0.00,,2013-05-14 14:53:00,
2013-05-14 11:01:00,51.0,22.0,-100.00,NW,310,10.0,-999.0,32,0.00,,,0.00,,2013-05-14 15:01:00,
2013-05-14 12:54:00,52.0,25.0,-100.00,WNW,284,15.0,-999.0,35,0.00,,,0.00,,2013-05-14 16:54:00,
2013-05-14 13:03:00,52.0,25.0,-100.00,WNW,284,15.0,-999.0,35,0.00,,,0.00,,2013-05-14 17:03:00,
2013-05-14 13:13:00,52.0,25.0,-100.00,WNW,284,15.0,-999.0,35,0.00,,,0.00,,2013-05-14 17:13:00,
2013-05-14 13:52:00,53.0,30.0,-100.00,WNW,292,17.0,-999.0,41,0.00,,,0.00,,2013-05-14 17:52:00,
2013-05-14 14:02:00,53.0,30.0,-100.00,WNW,292,17.0,-999.0,41,0.00,,,0.00,,2013-05-14 18:02:00,
2013-05-14 14:12:00,53.0,30.0,-100.00,WNW,292,17.0,-999.0,41,0.00,,,0.00,,2013-05-14 18:12:00,
2013-05-14 14:52:00,55.0,26.0,-100.00,WNW,299,14.0,-999.0,32,0.00,,,0.00,,2013-05-14 18:52:00,
2013-05-14 15:02:00,55.0,26.0,-100.00,WNW,299,14.0,-999.0,32,0.00,,,0.00,,2013-05-14 19:02:00,
2013-05-14 15:53:00,55.0,25.0,-100.00,WNW,301,14.0,-999.0,31,0.00,,,0.00,,2013-05-14 19:53:00,
2013-05-14 16:02:00,55.0,25.0,-100.00,WNW,301,14.0,-999.0,31,0.00,,,0.00,,2013-05-14 20:02:00,
2013-05-14 16:52:00,55.0,24.0,-100.00,WNW,295,15.0,-999.0,30,0.00,,,0.00,,2013-05-14 20:52:00,
2013-05-14 17:53:00,56.0,25.0,-100.00,WNW,284,14.0,-999.0,30,0.00,,,0.00,,2013-05-14 21:53:00,
2013-05-14 18:03:00,56.0,25.0,-100.00,WNW,284,14.0,-999.0,30,0.00,,,0.00,,2013-05-14 22:03:00,
2013-05-14 18:55:00,53.0,34.0,-100.00,SSW,202,10.0,-999.0,48,0.00,,,0.00,,2013-05-14 22:55:00,
2013-05-14 19:04:00,53.0,34.0,-100.00,SSW,202,10.0,-999.0,48,0.00,,,0.00,,2013-05-14 23:04:00,
2013-05-14 19:12:00,53.0,34.0,-100.00,SSW,202,10.0,-999.0,48,0.00,,,0.00,,2013-05-14 23:12:00,
2013-05-14 19:53:00,55.0,37.0,-100.00,SSW,202,9.0,-999.0,51,0.00,,,0.00,,2013-05-14 23:53:00,
2013-05-14 20:02:00,55.0,37.0,-100.00,SSW,202,9.0,-999.0,51,0.00,,,0.00,,2013-05-15 00:02:00,
2013-05-14 20:11:00,55.0,37.0,-100.00,SSW,202,9.0,-999.0,51,0.00,,,0.00,,2013-05-15 00:11:00,
2013-05-14 20:52:00,54.0,39.0,-100.00,SSW,201,6.0,-999.0,57,0.00,,,0.00,,2013-05-15 00:52:00,
2013-05-14 21:01:00,54.0,39.0,-100.00,SSW,201,6.0,-999.0,57,0.00,,,0.00,,2013-05-15 01:01:00,
2013-05-14 21:11:00,54.0,39.0,-100.00,SSW,201,6.0,-999.0,57,0.00,,,0.00,,2013-05-15 01:11:00,
2013-05-14 21:52:00,54.0,41.0,-100.00,South,175,6.0,-999.0,61,0.00,,,0.00,,2013-05-15 01:52:00,
2013-05-14 22:02:00,54.0,41.0,-100.00,South,175,6.0,-999.0,61,0.00,,,0.00,,2013-05-15 02:02:00,
2013-05-14 22:11:00,54.0,41.0,-100.00,South,175,6.0,-999.0,61,0.00,,,0.00,,2013-05-15 02:11:00,
2013-05-14 22:52:00,53.0,42.0,-100.00,South,187,7.0,-999.0,65,0.00,,,0.00,,2013-05-15 02:52:00,
2013-05-14 23:01:00,53.0,42.0,-100.00,South,187,7.0,-999.0,65,0.00,,,0.00,,2013-05-15 03:01:00,
2013-05-14 23:13:00,53.0,42.0,-100.00,South,187,7.0,-999.0,65,0.00,,,0.00,,2013-05-15 03:13:00,
2013-05-14 23:54:00,55.0,45.0,-100.00,South,188,6.0,-999.0,69,0.00,,,0.00,,2013-05-15 03:54:00,